createdAt,value
2018-09-13T00:01:31.344Z,100985.52
2018-09-13T00:03:59.577Z,100982.28
2018-09-13T00:06:27.916Z,100982.46
2018-09-13T00:08:56.037Z,100980.47
2018-09-13T00:11:24.348Z,100973.78
2018-09-13T00:13:52.602Z,100969.05
2018-09-13T00:16:20.933Z,100957.89
2018-09-13T00:18:49.297Z,100960.94
2018-09-13T00:21:17.685Z,100971.50
2018-09-13T00:23:46.180Z,100960.48
2018-09-13T00:26:14.519Z,100958.33
2018-09-13T00:28:42.636Z,100959.64
2018-09-13T00:31:11.176Z,100961.11
2018-09-13T00:33:39.761Z,100963.27
2018-09-13T00:36:12.916Z,100963.38
2018-09-13T00:38:43.237Z,100965.99
2018-09-13T00:41:11.496Z,100958.03
2018-09-13T00:43:39.796Z,100963.06
2018-09-13T00:46:09.169Z,100965.21
2018-09-13T00:48:37.429Z,100963.40
2018-09-13T00:51:05.958Z,100964.00
2018-09-13T00:53:34.156Z,100967.97
2018-09-13T00:56:02.636Z,100969.17
2018-09-13T00:58:30.936Z,100964.87
2018-09-13T01:00:59.158Z,100960.80
2018-09-13T01:03:27.456Z,100958.75
2018-09-13T01:05:55.777Z,100961.31
2018-09-13T01:08:24.156Z,100960.56
2018-09-13T01:10:55.320Z,100961.02
2018-09-13T01:13:23.610Z,100956.86
2018-09-13T01:15:51.806Z,100955.42
2018-09-13T01:18:19.946Z,100953.16
2018-09-13T01:20:48.067Z,100943.72
2018-09-13T01:23:16.175Z,100945.32
2018-09-13T01:25:44.250Z,100946.02
2018-09-13T01:28:12.415Z,100947.94
2018-09-13T01:30:40.543Z,100944.69
2018-09-13T01:33:08.889Z,100940.96
2018-09-13T01:35:37.007Z,100941.11
2018-09-13T01:38:05.278Z,100934.33
2018-09-13T01:40:33.421Z,100932.23
2018-09-13T01:43:01.767Z,100938.23
2018-09-13T01:45:29.907Z,100931.48
2018-09-13T01:47:58.219Z,100933.33
2018-09-13T01:50:26.334Z,100928.33
2018-09-13T01:52:54.668Z,100928.58
2018-09-13T01:55:22.800Z,100920.92
2018-09-13T01:57:51.101Z,100921.03
2018-09-13T02:00:19.241Z,100916.84
2018-09-13T02:02:47.427Z,100913.60
2018-09-13T02:05:15.685Z,100929.42
2018-09-13T02:07:43.886Z,100922.24
2018-09-13T02:10:12.121Z,100922.13
2018-09-13T02:12:40.287Z,100924.91
2018-09-13T02:15:08.765Z,100930.77
2018-09-13T02:17:37.217Z,100924.51
2018-09-13T02:20:05.458Z,100923.16
2018-09-13T02:22:33.685Z,100919.58
2018-09-13T02:25:01.867Z,100907.00
2018-09-13T02:27:29.903Z,100906.92
2018-09-13T02:29:58.115Z,100898.28
2018-09-13T02:32:26.366Z,100895.44
2018-09-13T02:34:54.931Z,100898.65
2018-09-13T02:37:23.293Z,100897.22
2018-09-13T02:39:51.557Z,100890.85
2018-09-13T02:42:19.639Z,100882.55
2018-09-13T02:44:47.805Z,100880.06
2018-09-13T02:47:15.997Z,100868.30
2018-09-13T02:49:44.169Z,100875.04
2018-09-13T02:52:12.445Z,100869.98
2018-09-13T02:54:40.692Z,100872.86
2018-09-13T02:57:08.824Z,100875.13
2018-09-13T02:59:37.045Z,100864.80
2018-09-13T03:02:05.193Z,100865.63
2018-09-13T03:04:33.422Z,100863.22
2018-09-13T03:07:01.867Z,100862.13
2018-09-13T03:09:30.202Z,100872.95
2018-09-13T03:11:58.383Z,100875.56
2018-09-13T03:14:26.579Z,100876.99
2018-09-13T03:16:54.681Z,100870.02
2018-09-13T03:19:22.874Z,100860.81
2018-09-13T03:21:51.040Z,100864.66
2018-09-13T03:24:19.261Z,100861.16
2018-09-13T03:26:47.474Z,100862.25
2018-09-13T03:29:15.891Z,100872.58
2018-09-13T03:31:44.122Z,100872.77
2018-09-13T03:34:12.472Z,100866.29
2018-09-13T03:36:40.991Z,100867.00
2018-09-13T03:39:10.818Z,100870.45
2018-09-13T03:41:39.192Z,100877.62
2018-09-13T03:44:07.530Z,100866.83
2018-09-13T03:46:36.059Z,100861.58
2018-09-13T03:49:04.290Z,100862.02
2018-09-13T03:51:32.568Z,100864.17
2018-09-13T03:54:00.788Z,100866.52
2018-09-13T03:56:28.898Z,100869.19
2018-09-13T03:58:57.250Z,100874.35
2018-09-13T04:01:25.370Z,100871.34
2018-09-13T04:03:53.813Z,100873.66
2018-09-13T04:06:22.201Z,100877.83
2018-09-13T04:08:50.583Z,100876.84
2018-09-13T04:11:18.897Z,100875.30
2018-09-13T04:13:47.198Z,100877.19
2018-09-13T04:16:15.431Z,100875.79
2018-09-13T04:18:43.575Z,100876.77
2018-09-13T04:21:11.815Z,100871.72
2018-09-13T04:23:39.965Z,100878.72
2018-09-13T04:26:08.202Z,100878.25
2018-09-13T04:28:36.314Z,100876.47
2018-09-13T04:31:04.474Z,100875.84
2018-09-13T04:33:32.595Z,100876.19
2018-09-13T04:36:01.171Z,100870.83
2018-09-13T04:38:29.473Z,100873.84
2018-09-13T04:40:57.774Z,100874.81
2018-09-13T04:43:25.942Z,100874.66
2018-09-13T04:45:54.101Z,100878.25
2018-09-13T04:48:22.297Z,100877.88
2018-09-13T04:50:50.446Z,100878.63
2018-09-13T04:53:18.539Z,100876.96
2018-09-13T04:55:46.907Z,100882.47
2018-09-13T04:58:15.144Z,100878.25
2018-09-13T05:00:43.453Z,100879.41
2018-09-13T05:03:11.643Z,100872.83
2018-09-13T05:05:39.913Z,100869.96
2018-09-13T06:04:36.789Z,100884.88
2018-09-13T07:35:15.928Z,100909.25
2018-09-13T07:38:03.521Z,100905.45
2018-09-13T07:40:43.265Z,100909.30
2018-09-13T08:00:25.852Z,100918.84
2018-09-13T08:03:28.797Z,100918.25
2018-09-13T08:34:13.166Z,100943.45
2018-09-13T08:44:00.789Z,100939.92
2018-09-13T09:27:13.168Z,100937.86
2018-09-13T10:41:18.865Z,100924.38
2018-09-13T10:43:55.952Z,100923.66
2018-09-13T10:46:28.628Z,100916.45
2018-09-13T10:49:04.727Z,100917.83
2018-09-13T10:51:45.276Z,100922.28
2018-09-13T10:54:21.909Z,100926.35
2018-09-13T10:56:54.509Z,100919.73
2018-09-13T10:59:26.528Z,100926.07
2018-09-13T11:01:55.808Z,100930.34
2018-09-13T11:04:26.395Z,100924.01
2018-09-13T11:06:55.067Z,100918.32
2018-09-13T11:09:25.087Z,100920.05
2018-09-13T11:12:04.090Z,100919.98
2018-09-13T11:15:15.892Z,100911.20
2018-09-13T11:17:44.507Z,100920.05
2018-09-13T11:20:20.347Z,100916.01
2018-09-13T11:23:18.609Z,100908.63
2018-09-13T11:25:55.128Z,100909.91
2018-09-13T11:42:20.528Z,100907.70
2018-09-13T11:44:53.907Z,100903.38
2018-09-13T11:47:23.107Z,100902.60
2018-09-13T11:49:51.888Z,100902.22
2018-09-13T11:52:24.495Z,100902.08
2018-09-13T11:54:53.088Z,100900.00
2018-09-13T11:57:21.467Z,100896.48
2018-09-13T11:59:50.127Z,100903.64
2018-09-13T12:02:18.808Z,100896.04
2018-09-13T12:04:47.350Z,100890.92
2018-09-13T12:07:16.287Z,100889.33
2018-09-13T12:09:52.606Z,100891.49
2018-09-13T12:12:21.208Z,100896.81
2018-09-13T12:14:49.932Z,100890.48
2018-09-13T12:17:19.112Z,100886.16
2018-09-13T12:19:47.869Z,100888.36
2018-09-13T12:22:17.676Z,100880.85
2018-09-13T12:24:49.375Z,100881.98
2018-09-13T12:27:17.742Z,100884.42
2018-09-13T12:29:46.955Z,100888.05
2018-09-13T12:32:15.732Z,100886.25
2018-09-13T12:34:46.393Z,100891.34
2018-09-13T12:37:15.026Z,100884.81
2018-09-13T14:21:24.284Z,100824.83
2018-09-13T14:23:52.883Z,100826.71
2018-09-13T15:04:07.666Z,100813.43
2018-09-13T15:06:36.427Z,100799.47
2018-09-13T15:09:13.572Z,100812.48
2018-09-13T15:15:08.164Z,100804.68
2018-09-13T15:17:37.066Z,100798.41
2018-09-13T15:20:07.709Z,100806.28
2018-09-13T15:22:36.064Z,100804.38
2018-09-13T15:38:48.551Z,100805.03
2018-09-13T15:41:16.941Z,100802.17
2018-09-13T15:43:45.560Z,100803.76
2018-09-13T15:46:13.901Z,100809.64
2018-09-13T15:48:42.144Z,100798.69
2018-09-13T15:51:10.538Z,100800.86
2018-09-13T15:53:38.918Z,100796.47
2018-09-13T15:56:08.312Z,100806.81
2018-09-13T15:58:36.812Z,100809.28
2018-09-13T16:01:05.691Z,100804.11
2018-09-13T16:03:34.079Z,100807.05
2018-09-13T16:06:02.654Z,100798.41
2018-09-13T16:08:31.389Z,100798.78
2018-09-13T16:10:59.708Z,100800.81
2018-09-13T16:13:28.462Z,100792.61
2018-09-13T16:15:56.873Z,100799.16
2018-09-13T16:18:25.414Z,100792.99
2018-09-13T16:20:54.238Z,100790.15
2018-09-13T16:23:22.678Z,100796.95
2018-09-13T16:25:50.997Z,100796.43
2018-09-13T16:43:33.264Z,100798.55
2018-09-13T16:46:01.573Z,100795.88
2018-09-13T16:48:35.443Z,100796.20
2018-09-13T16:51:03.663Z,100793.36
2018-09-13T16:53:31.861Z,100795.52
2018-09-13T16:56:01.622Z,100799.16
2018-09-13T16:58:29.782Z,100796.51
2018-09-13T17:00:58.078Z,100800.73
2018-09-13T17:03:26.358Z,100791.75
2018-09-13T17:05:54.758Z,100795.23
2018-09-13T17:08:23.524Z,100802.98
2018-09-13T17:10:53.264Z,100806.97
2018-09-13T17:13:22.058Z,100805.91
2018-09-13T17:15:50.239Z,100806.21
2018-09-13T17:18:18.625Z,100804.36
2018-09-13T17:20:46.877Z,100806.18
2018-09-13T17:23:15.801Z,100801.54
2018-09-13T17:25:44.321Z,100800.18
2018-09-13T17:28:12.761Z,100800.81
2018-09-13T17:30:40.883Z,100813.04
2018-09-13T17:33:09.358Z,100809.66
2018-09-13T17:35:37.610Z,100812.41
2018-09-13T17:38:05.869Z,100812.44
2018-09-13T17:40:34.749Z,100813.83
2018-09-13T17:43:02.982Z,100815.74
2018-09-13T17:45:31.141Z,100815.14
2018-09-13T17:48:00.215Z,100817.95
2018-09-13T17:50:28.398Z,100823.78
2018-09-13T17:52:56.799Z,100822.28
2018-09-13T17:55:24.997Z,100819.78
2018-09-13T17:57:53.341Z,100824.23
2018-09-13T18:00:21.573Z,100820.73
2018-09-13T18:02:49.867Z,100822.89
2018-09-13T18:05:18.049Z,100823.73
2018-09-13T18:07:46.550Z,100830.46
2018-09-13T18:10:14.837Z,100831.41
2018-09-13T18:12:43.162Z,100823.59
2018-09-13T18:15:11.449Z,100830.20
2018-09-13T18:17:39.801Z,100833.16
2018-09-13T18:20:08.102Z,100834.77
2018-09-13T18:22:36.430Z,100841.16
2018-09-13T18:25:04.593Z,100835.26
2018-09-13T18:27:32.886Z,100841.14
2018-09-13T18:30:01.065Z,100844.66
2018-09-13T18:32:29.307Z,100850.63
2018-09-13T18:34:57.756Z,100850.78
2018-09-13T18:37:25.950Z,100855.28
2018-09-13T18:39:54.080Z,100849.05
2018-09-13T18:42:22.373Z,100853.92
2018-09-13T18:44:50.600Z,100858.68
2018-09-13T18:47:18.911Z,100858.87
2018-09-13T18:49:47.553Z,100854.72
2018-09-13T18:52:15.694Z,100860.83
2018-09-13T18:54:43.978Z,100853.78
2018-09-13T18:57:14.282Z,100859.47
2018-09-13T18:59:42.948Z,100864.30
2018-09-13T19:03:01.344Z,100858.48
2018-09-13T19:05:40.762Z,100855.34
2018-09-13T19:08:14.611Z,100855.08
2018-09-13T19:10:59.811Z,100862.62
2018-09-13T19:13:28.741Z,100857.42
2018-09-13T19:15:59.508Z,100861.01
2018-09-13T19:18:43.463Z,100864.05
2018-09-13T19:21:13.279Z,100865.41
2018-09-13T19:23:59.618Z,100866.52
2018-09-13T19:26:38.723Z,100873.14
2018-09-13T19:29:11.473Z,100869.78
2018-09-13T19:31:57.540Z,100876.29
2018-09-13T19:34:26.036Z,100873.53
2018-09-13T19:36:55.962Z,100870.24
2018-09-13T19:39:24.296Z,100867.27
2018-09-13T19:41:53.421Z,100873.86
2018-09-13T19:44:22.454Z,100879.26
2018-09-13T19:46:57.972Z,100874.69
2018-09-13T19:49:26.519Z,100887.06
2018-09-13T19:55:23.440Z,100882.51
2018-09-13T19:58:08.874Z,100877.50
2018-09-13T20:08:35.606Z,100884.80
2018-09-13T20:20:01.235Z,100885.02
2018-09-13T20:39:44.643Z,100884.65
2018-09-13T20:42:29.942Z,100884.75
2018-09-13T20:44:58.229Z,100887.13
2018-09-13T20:51:19.564Z,100885.77
2018-09-13T20:54:01.353Z,100876.96
2018-09-13T20:59:45.852Z,100880.67
2018-09-13T21:02:14.159Z,100882.81
2018-09-13T21:04:42.263Z,100877.16
2018-09-13T21:07:10.644Z,100880.68
2018-09-13T21:09:38.761Z,100879.11
2018-09-13T21:12:06.984Z,100876.20
2018-09-13T21:14:35.276Z,100869.23
2018-09-13T21:17:03.706Z,100872.94
2018-09-13T21:19:32.016Z,100874.11
2018-09-13T21:22:00.559Z,100869.44
2018-09-13T21:24:28.605Z,100875.20
2018-09-13T21:26:56.950Z,100870.27
2018-09-13T21:29:25.251Z,100871.98
2018-09-13T21:31:53.878Z,100879.16
2018-09-13T21:34:21.861Z,100875.19
2018-09-13T21:36:49.964Z,100878.98
2018-09-13T21:39:17.993Z,100869.17
2018-09-13T21:41:46.028Z,100872.62
2018-09-13T21:44:14.211Z,100875.27
2018-09-13T21:46:42.218Z,100879.09
2018-09-13T21:49:10.250Z,100887.08
2018-09-13T21:51:38.665Z,100882.56
2018-09-13T21:54:06.900Z,100883.78
2018-09-13T21:56:35.090Z,100884.78
2018-09-13T21:59:03.745Z,100888.63
2018-09-13T22:01:32.481Z,100886.41
2018-09-13T22:04:00.741Z,100875.19
2018-09-13T22:06:28.725Z,100889.94
2018-09-13T22:08:56.724Z,100886.83
2018-09-13T22:11:24.933Z,100889.11
2018-09-13T22:13:53.015Z,100896.61
2018-09-13T22:16:21.079Z,100896.38
2018-09-13T22:18:49.140Z,100891.48
2018-09-13T22:21:17.297Z,100897.86
2018-09-13T22:23:47.023Z,100897.34
2018-09-13T22:26:15.204Z,100903.02
2018-09-13T22:28:43.325Z,100903.98
2018-09-13T22:31:11.425Z,100900.61
2018-09-13T22:33:39.858Z,100903.33
2018-09-13T22:36:07.986Z,100905.95
2018-09-13T22:38:36.260Z,100906.12
2018-09-13T22:41:04.641Z,100906.22
2018-09-13T22:43:38.025Z,100902.33
2018-09-13T22:46:06.096Z,100907.59
2018-09-13T22:48:34.115Z,100905.17
2018-09-13T22:51:03.281Z,100901.50
2018-09-13T22:53:32.158Z,100902.02
2018-09-13T22:56:00.123Z,100902.72
2018-09-13T22:58:28.610Z,100902.77
2018-09-13T23:00:58.130Z,100905.49
2018-09-13T23:03:29.245Z,100903.17
2018-09-13T23:05:57.660Z,100902.47
2018-09-13T23:08:25.715Z,100902.21
2018-09-13T23:10:53.772Z,100902.42
2018-09-13T23:13:22.085Z,100899.11
2018-09-13T23:15:50.166Z,100899.71
2018-09-13T23:18:18.732Z,100897.39
2018-09-13T23:20:46.774Z,100896.83
2018-09-13T23:23:14.810Z,100907.90
2018-09-13T23:25:43.215Z,100904.89
2018-09-13T23:28:11.445Z,100904.96
2018-09-13T23:30:42.695Z,100907.20
2018-09-13T23:33:10.705Z,100909.83
2018-09-13T23:35:39.280Z,100904.63
2018-09-13T23:38:07.325Z,100904.80
2018-09-13T23:40:35.451Z,100911.41
2018-09-13T23:43:03.634Z,100911.69
2018-09-13T23:45:31.776Z,100912.34
2018-09-13T23:48:00.400Z,100912.20
2018-09-13T23:50:28.427Z,100911.41
2018-09-13T23:52:56.670Z,100912.61
2018-09-13T23:55:24.665Z,100913.17
2018-09-13T23:57:53.897Z,100914.66
